createdAt,value
2023-02-19T00:01:12.842Z,68.50
2023-02-19T00:03:40.526Z,67.00
2023-02-19T00:06:10.025Z,70.50
2023-02-19T00:08:38.793Z,63.50
2023-02-19T00:11:08.509Z,69.75
2023-02-19T00:13:41.321Z,67.00
2023-02-19T00:16:14.680Z,74.50
2023-02-19T00:18:42.431Z,74.50
2023-02-19T00:21:09.412Z,71.00
2023-02-19T00:23:36.406Z,68.50
2023-02-19T00:26:17.572Z,74.00
2023-02-19T00:28:45.327Z,72.50
2023-02-19T00:31:19.845Z,69.00
2023-02-19T00:33:48.692Z,73.00
2023-02-19T00:36:15.775Z,69.25
2023-02-19T00:38:43.303Z,65.00
2023-02-19T00:41:20.170Z,75.75
2023-02-19T00:43:46.743Z,71.00
2023-02-19T00:46:13.527Z,74.25
2023-02-19T00:48:40.200Z,70.25
2023-02-19T00:51:06.950Z,76.50
2023-02-19T00:53:33.635Z,76.75
2023-02-19T00:56:00.335Z,74.25
2023-02-19T00:58:26.983Z,73.75
2023-02-19T01:00:53.645Z,69.50
2023-02-19T01:03:22.631Z,74.00
2023-02-19T01:05:50.752Z,67.75
2023-02-19T01:08:17.703Z,71.50
2023-02-19T01:10:44.500Z,65.25
2023-02-19T01:13:11.316Z,69.75
2023-02-19T01:15:38.282Z,70.50
2023-02-19T01:18:05.176Z,68.00
2023-02-19T01:20:31.812Z,70.50
2023-02-19T01:22:58.418Z,68.00
2023-02-19T01:25:25.074Z,67.25
2023-02-19T01:27:51.702Z,67.50
2023-02-19T01:30:18.447Z,60.50
2023-02-19T01:32:45.153Z,64.50
2023-02-19T01:35:11.785Z,62.75
2023-02-19T01:37:38.526Z,63.50
2023-02-19T01:40:05.485Z,58.00
2023-02-19T01:42:32.151Z,55.25
2023-02-19T01:45:29.851Z,65.50
2023-02-19T01:48:05.847Z,52.00
2023-02-19T01:50:38.759Z,58.75
2023-02-19T01:53:08.867Z,56.25
2023-02-19T01:55:36.188Z,57.75
2023-02-19T01:58:04.074Z,55.25
2023-02-19T02:00:32.371Z,58.50
2023-02-19T02:03:01.012Z,53.00
2023-02-19T02:05:46.456Z,49.25
2023-02-19T02:08:33.845Z,50.75
2023-02-19T02:11:00.970Z,56.75
2023-02-19T02:13:28.295Z,53.25
2023-02-19T02:16:30.357Z,54.75
2023-02-19T02:19:46.691Z,52.00
2023-02-19T02:22:36.962Z,49.00
2023-02-19T02:25:12.694Z,54.25
2023-02-19T02:27:57.756Z,51.50
2023-02-19T02:30:44.844Z,51.00
2023-02-19T02:33:20.340Z,53.50
2023-02-19T02:35:54.990Z,47.50
2023-02-19T02:38:26.061Z,45.00
2023-02-19T02:40:54.972Z,51.50
2023-02-19T02:43:22.046Z,51.25
2023-02-19T02:45:48.964Z,58.25
2023-02-19T02:48:30.453Z,60.50
2023-02-19T02:50:59.811Z,52.25
2023-02-19T02:53:55.317Z,50.75
2023-02-19T02:56:25.087Z,53.75
2023-02-19T02:58:53.985Z,54.75
2023-02-19T03:02:00.532Z,56.75
2023-02-19T03:04:27.199Z,54.00
2023-02-19T03:06:55.450Z,56.00
2023-02-19T03:09:40.723Z,52.75
2023-02-19T03:12:30.966Z,53.50
2023-02-19T03:15:21.487Z,52.25
2023-02-19T03:18:11.575Z,52.75
2023-02-19T03:20:43.252Z,54.75
2023-02-19T03:23:11.830Z,51.00
2023-02-19T03:25:58.520Z,47.50
2023-02-19T03:28:47.845Z,53.50
2023-02-19T03:31:19.641Z,54.50
2023-02-19T03:33:49.417Z,55.50
2023-02-19T03:36:16.426Z,55.50
2023-02-19T03:38:48.784Z,54.25
2023-02-19T03:41:36.721Z,52.50
2023-02-19T03:44:27.310Z,56.25
2023-02-19T03:47:03.487Z,52.50
2023-02-19T03:49:53.580Z,53.50
2023-02-19T03:52:22.979Z,50.50
2023-02-19T03:55:26.698Z,52.00
2023-02-19T03:58:08.525Z,51.25
2023-02-19T04:00:57.277Z,51.50
2023-02-19T04:03:44.357Z,49.50
2023-02-19T04:06:15.826Z,52.25
2023-02-19T04:08:48.232Z,53.00
2023-02-19T04:11:16.971Z,50.00
2023-02-19T04:13:48.531Z,49.75
2023-02-19T04:16:24.515Z,51.25
2023-02-19T04:18:55.564Z,47.75
2023-02-19T04:21:24.011Z,49.50
2023-02-19T04:23:51.339Z,50.00
2023-02-19T04:26:22.491Z,46.25
2023-02-19T04:28:49.103Z,50.50
2023-02-19T04:31:15.955Z,47.75
2023-02-19T04:33:42.589Z,51.75
2023-02-19T04:36:11.081Z,51.50
2023-02-19T04:38:38.131Z,50.50
2023-02-19T04:41:04.902Z,47.25
2023-02-19T04:43:31.517Z,48.50
2023-02-19T04:46:02.106Z,49.25
2023-02-19T04:48:29.073Z,52.25
2023-02-19T04:50:56.150Z,43.75
2023-02-19T04:53:22.911Z,49.75
2023-02-19T04:55:53.193Z,49.75
2023-02-19T04:58:20.478Z,48.00
2023-02-19T05:00:47.284Z,46.25
2023-02-19T05:03:13.996Z,47.25
2023-02-19T05:05:40.582Z,45.00
2023-02-19T05:08:07.266Z,46.25
2023-02-19T05:10:34.016Z,47.50
2023-02-19T05:13:00.632Z,47.00
2023-02-19T05:15:27.255Z,46.00
2023-02-19T05:17:53.880Z,45.50
2023-02-19T05:20:22.401Z,45.50
2023-02-19T05:22:49.079Z,44.25
2023-02-19T05:25:15.760Z,49.75
2023-02-19T05:27:42.367Z,42.50
2023-02-19T05:30:09.786Z,47.25
2023-02-19T05:32:36.596Z,47.00
2023-02-19T05:35:03.502Z,42.50
2023-02-19T05:37:30.316Z,45.50
2023-02-19T05:39:56.893Z,47.25
2023-02-19T05:42:23.617Z,45.00
2023-02-19T05:44:50.249Z,46.25
2023-02-19T05:47:16.853Z,45.00
2023-02-19T05:49:43.484Z,39.25
2023-02-19T05:52:10.156Z,39.50
2023-02-19T05:54:36.757Z,41.50
2023-02-19T05:57:03.412Z,52.25
2023-02-19T05:59:30.028Z,62.75
2023-02-19T06:01:58.260Z,62.25
2023-02-19T06:04:24.920Z,64.50
2023-02-19T06:06:51.534Z,62.75
2023-02-19T06:09:18.168Z,57.25
2023-02-19T06:11:44.819Z,56.50
2023-02-19T06:14:13.993Z,53.75
2023-02-19T06:16:41.482Z,56.00
2023-02-19T06:19:08.249Z,57.25
2023-02-19T06:21:35.060Z,57.00
2023-02-19T06:24:06.438Z,55.25
2023-02-19T06:26:33.365Z,58.50
2023-02-19T06:29:00.052Z,60.00
2023-02-19T06:31:26.748Z,59.75
2023-02-19T06:33:55.075Z,62.75
2023-02-19T06:36:22.377Z,53.25
2023-02-19T06:38:49.036Z,61.50
2023-02-19T06:41:15.928Z,55.25
2023-02-19T06:43:42.951Z,57.25
2023-02-19T06:46:11.682Z,54.00
2023-02-19T06:48:40.371Z,56.50
2023-02-19T06:51:07.537Z,53.50
2023-02-19T06:53:34.151Z,55.25
2023-02-19T06:56:03.760Z,54.25
2023-02-19T06:58:31.316Z,53.50
2023-02-19T07:00:58.233Z,53.75
2023-02-19T07:03:26.395Z,56.50
2023-02-19T07:05:53.593Z,52.00
2023-02-19T07:08:20.585Z,52.50
2023-02-19T07:10:55.558Z,52.25
2023-02-19T07:13:22.971Z,57.50
2023-02-19T07:15:51.762Z,52.25
2023-02-19T07:18:18.790Z,61.75
2023-02-19T07:20:45.529Z,52.00
2023-02-19T07:23:12.202Z,58.25
2023-02-19T07:25:39.396Z,58.75
2023-02-19T07:28:06.614Z,58.50
2023-02-19T07:30:33.531Z,57.75
2023-02-19T07:33:00.280Z,61.75
2023-02-19T07:35:27.144Z,56.25
2023-02-19T07:37:53.944Z,54.25
2023-02-19T07:40:20.685Z,55.50
2023-02-19T07:42:47.270Z,56.00
2023-02-19T07:45:13.965Z,58.75
2023-02-19T07:47:40.608Z,57.50
2023-02-19T07:50:07.725Z,49.75
2023-02-19T07:52:34.528Z,60.75
2023-02-19T07:55:01.271Z,60.50
2023-02-19T07:57:29.764Z,53.75
2023-02-19T07:59:56.918Z,53.00
2023-02-19T08:02:42.057Z,59.00
2023-02-19T08:05:08.920Z,57.50
2023-02-19T08:07:36.467Z,57.00
2023-02-19T08:10:22.770Z,57.50
2023-02-19T08:13:15.544Z,57.50
2023-02-19T08:15:42.191Z,59.75
2023-02-19T08:18:10.141Z,59.25
2023-02-19T08:20:37.007Z,58.25
2023-02-19T08:23:04.199Z,52.75
2023-02-19T08:25:30.970Z,56.75
2023-02-19T08:27:57.620Z,39.50
2023-02-19T08:30:24.371Z,56.50
2023-02-19T08:32:51.161Z,59.00
2023-02-19T08:35:17.920Z,62.00
2023-02-19T08:37:45.096Z,58.75
2023-02-19T08:40:12.739Z,60.50
2023-02-19T08:42:39.394Z,60.00
2023-02-19T08:45:06.368Z,61.00
2023-02-19T08:47:35.809Z,54.50
2023-02-19T08:50:05.029Z,56.50
2023-02-19T08:52:31.918Z,59.00
2023-02-19T08:54:58.887Z,59.00
2023-02-19T08:57:26.643Z,58.75
2023-02-19T08:59:53.803Z,58.00
2023-02-19T09:02:20.497Z,57.50
2023-02-19T09:04:47.149Z,57.25
2023-02-19T09:07:13.764Z,52.50
2023-02-19T09:09:40.686Z,53.75
2023-02-19T09:12:09.789Z,50.75
2023-02-19T09:14:37.569Z,49.00
2023-02-19T09:17:06.101Z,41.50
2023-02-19T09:19:33.335Z,45.50
2023-02-19T09:22:00.268Z,42.75
2023-02-19T09:24:27.001Z,43.25
2023-02-19T09:26:54.936Z,33.75
2023-02-19T09:29:26.463Z,34.75
2023-02-19T09:31:59.588Z,38.75
2023-02-19T09:34:27.949Z,29.25
2023-02-19T09:36:55.195Z,31.75
2023-02-19T09:39:22.163Z,30.50
2023-02-19T09:42:15.440Z,36.75
2023-02-19T09:44:45.480Z,34.25
2023-02-19T09:47:21.074Z,30.25
2023-02-19T09:49:51.354Z,35.50
2023-02-19T09:52:33.321Z,27.75
2023-02-19T09:55:10.300Z,26.00
2023-02-19T09:57:37.099Z,25.75
2023-02-19T10:00:24.850Z,36.75
2023-02-19T10:03:04.578Z,29.75
2023-02-19T10:05:32.523Z,31.25
2023-02-19T10:07:59.625Z,29.00
2023-02-19T10:10:35.176Z,33.50
2023-02-19T10:13:22.186Z,32.50
2023-02-19T10:15:52.361Z,34.00
2023-02-19T10:18:22.993Z,30.75
2023-02-19T10:20:52.060Z,33.00
2023-02-19T10:23:19.482Z,27.25
2023-02-19T10:25:54.350Z,28.50
2023-02-19T10:28:25.373Z,35.00
2023-02-19T10:30:56.130Z,30.25
2023-02-19T10:33:23.805Z,29.00
2023-02-19T10:36:05.663Z,25.75
2023-02-19T10:38:39.207Z,26.00
2023-02-19T10:41:07.614Z,28.25
2023-02-19T10:43:42.162Z,30.75
2023-02-19T10:46:18.979Z,28.25
2023-02-19T10:48:52.597Z,26.50
2023-02-19T10:51:23.048Z,31.75
2023-02-19T10:53:51.983Z,28.50
2023-02-19T10:56:26.933Z,31.00
2023-02-19T10:58:53.965Z,33.00
2023-02-19T11:01:27.112Z,34.00
2023-02-19T11:04:15.745Z,29.25
2023-02-19T11:06:42.417Z,29.50
2023-02-19T11:09:25.499Z,27.50
2023-02-19T11:11:54.351Z,26.50
2023-02-19T11:14:24.184Z,27.00
2023-02-19T11:16:56.444Z,26.00
2023-02-19T11:19:24.713Z,30.00
2023-02-19T11:21:52.121Z,26.25
2023-02-19T11:24:35.298Z,26.50
2023-02-19T11:27:05.387Z,30.50
2023-02-19T11:29:34.985Z,24.50
2023-02-19T11:32:37.099Z,26.25
2023-02-19T11:35:24.248Z,29.50
2023-02-19T11:37:59.602Z,24.75
2023-02-19T11:40:41.709Z,31.25
2023-02-19T11:43:26.743Z,25.25
2023-02-19T11:45:58.902Z,22.75
2023-02-19T11:48:56.367Z,26.00
2023-02-19T11:51:52.885Z,29.00
2023-02-19T11:54:49.302Z,29.00
2023-02-19T11:57:49.583Z,21.50
2023-02-19T12:00:42.255Z,21.25
2023-02-19T12:03:21.035Z,23.50
2023-02-19T12:06:32.224Z,19.50
2023-02-19T12:09:01.784Z,20.75
2023-02-19T12:11:38.951Z,19.25
2023-02-19T12:14:32.842Z,17.50
2023-02-19T12:17:04.507Z,20.75
2023-02-19T12:20:16.459Z,13.00
2023-02-19T12:22:48.891Z,17.25
2023-02-19T12:25:34.849Z,15.75
2023-02-19T12:28:12.668Z,20.25
2023-02-19T12:31:00.842Z,20.50
2023-02-19T12:34:04.905Z,19.25
2023-02-19T12:36:58.991Z,19.00
2023-02-19T12:39:40.936Z,22.50
2023-02-19T12:42:40.256Z,19.25
2023-02-19T12:45:18.404Z,16.50
2023-02-19T12:47:58.762Z,17.75
2023-02-19T12:50:27.831Z,15.25
2023-02-19T12:53:07.523Z,21.00
2023-02-19T12:55:39.225Z,14.25
2023-02-19T12:58:11.511Z,16.25
2023-02-19T13:00:44.281Z,17.50
2023-02-19T13:03:23.923Z,20.50
2023-02-19T13:06:13.763Z,13.25
2023-02-19T13:09:13.001Z,17.25
2023-02-19T13:12:02.311Z,17.50
2023-02-19T13:14:36.512Z,8.75
2023-02-19T13:17:28.751Z,12.50
2023-02-19T13:20:09.499Z,11.75
2023-02-19T13:23:01.212Z,16.25
2023-02-19T13:25:42.284Z,12.75
2023-02-19T13:28:26.886Z,13.25
2023-02-19T13:31:30.557Z,10.00
2023-02-19T13:34:15.196Z,16.00
2023-02-19T13:36:42.189Z,11.50
2023-02-19T13:41:50.485Z,9.00
2023-02-19T13:44:21.915Z,7.50
2023-02-19T13:46:49.777Z,9.00
2023-02-19T13:49:41.520Z,11.75
2023-02-19T13:52:29.668Z,14.75
2023-02-19T13:55:33.707Z,13.25
2023-02-19T13:58:34.110Z,14.00
2023-02-19T14:01:05.639Z,15.50
2023-02-19T14:04:06.525Z,13.25
2023-02-19T14:07:04.973Z,12.25
2023-02-19T14:09:34.415Z,14.75
2023-02-19T14:12:04.287Z,9.75
2023-02-19T14:14:44.137Z,12.25
2023-02-19T14:17:12.571Z,11.75
2023-02-19T14:19:42.003Z,12.50
2023-02-19T14:22:47.231Z,9.75
2023-02-19T14:25:29.513Z,7.25
2023-02-19T14:28:20.575Z,10.50
2023-02-19T14:31:01.124Z,9.25
2023-02-19T14:33:36.296Z,7.75
2023-02-19T14:36:10.103Z,3.75
2023-02-19T14:38:40.960Z,6.25
2023-02-19T14:41:12.562Z,4.75
2023-02-19T14:43:40.331Z,9.25
2023-02-19T14:46:22.763Z,6.75
2023-02-19T14:48:50.348Z,6.00
2023-02-19T14:51:41.610Z,6.50
2023-02-19T14:54:16.544Z,6.00
2023-02-19T14:56:47.320Z,11.25
2023-02-19T14:59:13.976Z,8.00
2023-02-19T15:01:41.005Z,8.50
2023-02-19T15:04:22.659Z,9.25
2023-02-19T15:06:49.713Z,11.25
2023-02-19T15:09:16.850Z,10.50
2023-02-19T15:11:43.999Z,11.00
2023-02-19T15:14:20.640Z,9.75
2023-02-19T15:16:47.859Z,9.25
2023-02-19T15:19:17.147Z,8.75
2023-02-19T15:21:47.594Z,5.75
2023-02-19T15:24:16.878Z,6.25
2023-02-19T15:26:51.933Z,5.25
2023-02-19T15:29:24.009Z,7.25
2023-02-19T15:31:56.849Z,9.25
2023-02-19T15:34:29.170Z,6.25
2023-02-19T15:37:00.311Z,5.50
2023-02-19T15:39:38.060Z,8.50
2023-02-19T15:42:07.911Z,5.50
2023-02-19T15:45:16.872Z,4.75
2023-02-19T15:47:49.370Z,4.25
2023-02-19T15:50:19.079Z,6.50
2023-02-19T15:53:07.166Z,7.00
2023-02-19T15:55:42.200Z,7.50
2023-02-19T15:58:17.810Z,8.00
2023-02-19T16:01:04.684Z,5.25
2023-02-19T16:03:32.294Z,9.50
2023-02-19T16:06:10.645Z,7.00
2023-02-19T16:08:39.616Z,6.75
2023-02-19T16:11:27.598Z,2.75
2023-02-19T16:14:17.094Z,5.00
2023-02-19T16:16:46.067Z,4.25
2023-02-19T16:19:12.908Z,5.00
2023-02-19T16:21:42.557Z,6.00
2023-02-19T16:24:32.564Z,6.00
2023-02-19T16:26:59.562Z,7.50
2023-02-19T16:29:30.106Z,6.50
2023-02-19T16:31:59.666Z,6.25
2023-02-19T16:34:47.271Z,9.00
2023-02-19T16:37:32.078Z,6.25
2023-02-19T16:40:07.539Z,7.25
2023-02-19T16:42:35.742Z,7.00
2023-02-19T16:45:02.661Z,6.50
2023-02-19T16:47:32.025Z,7.50
2023-02-19T16:50:01.781Z,10.25
2023-02-19T16:52:29.471Z,9.25
2023-02-19T16:54:56.110Z,9.00
2023-02-19T16:57:22.827Z,7.50
2023-02-19T16:59:49.537Z,7.00
2023-02-19T17:02:20.424Z,11.00
2023-02-19T17:04:49.063Z,12.75
2023-02-19T17:07:17.793Z,10.00
2023-02-19T17:09:44.576Z,6.25
2023-02-19T17:12:14.477Z,8.00
2023-02-19T17:14:41.577Z,9.50
2023-02-19T17:17:08.464Z,8.50
2023-02-19T17:19:35.172Z,9.00
2023-02-19T17:22:01.927Z,8.50
2023-02-19T17:24:28.552Z,8.50
2023-02-19T17:26:55.236Z,8.25
2023-02-19T17:29:24.644Z,6.75
2023-02-19T17:31:51.913Z,9.25
2023-02-19T17:34:18.693Z,8.25
2023-02-19T17:36:48.042Z,6.00
2023-02-19T17:39:15.504Z,8.00
2023-02-19T17:41:42.279Z,12.50
2023-02-19T17:44:09.033Z,10.75
2023-02-19T17:46:35.975Z,13.50
2023-02-19T17:49:02.617Z,14.00
2023-02-19T17:51:29.256Z,19.50
2023-02-19T17:53:55.872Z,21.75
2023-02-19T17:56:25.708Z,25.50
2023-02-19T17:58:52.676Z,33.75
2023-02-19T18:01:19.464Z,34.50
2023-02-19T18:03:46.193Z,26.25
2023-02-19T18:06:13.717Z,31.75
2023-02-19T18:08:45.910Z,23.50
2023-02-19T18:11:12.781Z,20.25
2023-02-19T18:13:39.636Z,21.25
2023-02-19T18:16:06.500Z,25.00
2023-02-19T18:18:33.179Z,21.25
2023-02-19T18:20:59.785Z,20.75
2023-02-19T18:23:26.623Z,20.00
2023-02-19T18:25:53.206Z,20.25
2023-02-19T18:28:19.813Z,21.50
2023-02-19T18:30:46.544Z,27.25
2023-02-19T18:33:13.458Z,28.25
2023-02-19T18:35:40.339Z,28.75
2023-02-19T18:38:07.090Z,29.25
2023-02-19T18:40:33.765Z,32.50
2023-02-19T18:43:00.504Z,22.75
2023-02-19T18:45:27.626Z,23.75
2023-02-19T18:47:54.334Z,22.00
2023-02-19T18:50:21.036Z,24.50
2023-02-19T18:52:47.868Z,34.50
2023-02-19T18:55:14.640Z,31.25
2023-02-19T18:57:41.309Z,35.50
2023-02-19T19:00:08.895Z,49.00
2023-02-19T19:02:48.350Z,36.75
2023-02-19T19:05:23.995Z,40.25
2023-02-19T19:07:52.653Z,39.25
2023-02-19T19:10:19.820Z,40.25
2023-02-19T19:12:46.893Z,40.50
2023-02-19T19:15:15.672Z,40.25
2023-02-19T19:17:43.762Z,41.75
2023-02-19T19:20:10.964Z,40.25
2023-02-19T19:22:38.047Z,44.75
2023-02-19T19:25:05.335Z,46.00
2023-02-19T19:27:31.973Z,54.50
2023-02-19T19:29:58.686Z,86.25
2023-02-19T19:32:25.406Z,163.00
2023-02-19T19:34:52.024Z,118.75
2023-02-19T19:37:18.705Z,108.00
2023-02-19T19:39:45.338Z,86.75
2023-02-19T19:42:11.951Z,90.00
2023-02-19T19:44:38.598Z,73.75
2023-02-19T19:47:05.265Z,77.50
2023-02-19T19:49:31.960Z,80.25
2023-02-19T19:52:01.140Z,75.25
2023-02-19T19:54:28.724Z,79.75
2023-02-19T19:56:55.657Z,86.50
2023-02-19T19:59:23.170Z,85.00
2023-02-19T20:01:57.028Z,79.75
2023-02-19T20:04:25.461Z,81.50
2023-02-19T20:06:52.572Z,73.00
2023-02-19T20:09:20.284Z,70.00
2023-02-19T20:11:49.658Z,65.50
2023-02-19T20:14:17.769Z,65.00
2023-02-19T20:16:44.895Z,66.00
2023-02-19T20:19:11.716Z,67.00
2023-02-19T20:21:38.330Z,63.75
2023-02-19T20:24:05.325Z,63.50
2023-02-19T20:26:32.076Z,64.25
2023-02-19T20:28:58.957Z,60.50
2023-02-19T20:31:25.918Z,61.50
2023-02-19T20:33:52.796Z,65.25
2023-02-19T20:36:20.274Z,58.25
2023-02-19T20:38:49.344Z,61.25
2023-02-19T20:41:16.029Z,63.00
2023-02-19T20:43:42.642Z,69.75
2023-02-19T20:46:09.548Z,67.25
2023-02-19T20:48:36.354Z,72.75
2023-02-19T20:51:03.379Z,74.00
2023-02-19T20:53:31.930Z,71.25
2023-02-19T20:55:58.740Z,82.75
2023-02-19T20:58:26.074Z,70.75
2023-02-19T21:00:55.883Z,73.50
2023-02-19T21:03:22.596Z,63.50
2023-02-19T21:05:49.265Z,75.50
2023-02-19T21:08:17.343Z,75.75
2023-02-19T21:10:45.698Z,71.00
2023-02-19T21:13:12.959Z,68.50
2023-02-19T21:15:39.730Z,70.25
2023-02-19T21:18:06.455Z,68.50
2023-02-19T21:20:33.194Z,58.25
2023-02-19T21:22:59.832Z,62.75
2023-02-19T21:25:26.721Z,58.25
2023-02-19T21:27:53.901Z,59.25
2023-02-19T21:30:20.500Z,60.25
2023-02-19T21:32:47.112Z,63.75
2023-02-19T21:35:13.679Z,58.25
2023-02-19T21:37:43.066Z,59.25
2023-02-19T21:40:11.081Z,55.50
2023-02-19T21:42:37.697Z,56.25
2023-02-19T21:45:04.681Z,59.00
2023-02-19T21:47:31.316Z,48.75
2023-02-19T21:49:57.967Z,59.75
2023-02-19T21:52:24.605Z,57.50
2023-02-19T21:54:51.380Z,61.25
2023-02-19T21:57:18.002Z,56.25
2023-02-19T21:59:44.587Z,65.00
2023-02-19T22:02:11.293Z,58.00
2023-02-19T22:04:37.932Z,59.50
2023-02-19T22:07:04.824Z,65.25
2023-02-19T22:09:31.465Z,64.00
2023-02-19T22:11:58.107Z,61.25
2023-02-19T22:14:24.720Z,63.50
2023-02-19T22:16:51.939Z,62.75
2023-02-19T22:19:18.544Z,67.50
2023-02-19T22:21:45.221Z,58.50
2023-02-19T22:24:20.416Z,61.50
2023-02-19T22:26:47.808Z,59.75
2023-02-19T22:29:15.478Z,58.50
2023-02-19T22:31:42.902Z,61.25
2023-02-19T22:34:09.877Z,63.25
2023-02-19T22:36:40.520Z,58.75
2023-02-19T22:39:15.121Z,58.00
2023-02-19T22:41:42.812Z,54.25
2023-02-19T22:44:10.715Z,61.00
2023-02-19T22:46:37.517Z,63.75
2023-02-19T22:49:06.300Z,59.25
2023-02-19T22:51:35.545Z,56.25
2023-02-19T22:54:05.207Z,61.25
2023-02-19T22:56:31.836Z,56.75
2023-02-19T22:58:59.109Z,56.50
2023-02-19T23:01:26.018Z,57.75
2023-02-19T23:04:01.151Z,56.50
2023-02-19T23:06:31.820Z,58.25
2023-02-19T23:09:03.512Z,55.25
2023-02-19T23:11:34.106Z,53.25
2023-02-19T23:14:00.765Z,54.50
2023-02-19T23:16:28.440Z,57.75
2023-02-19T23:18:55.607Z,63.00
2023-02-19T23:21:22.850Z,71.75
2023-02-19T23:23:49.646Z,68.50
2023-02-19T23:26:16.896Z,67.50
2023-02-19T23:28:44.398Z,62.00
2023-02-19T23:31:11.461Z,60.25
2023-02-19T23:33:38.666Z,65.25
2023-02-19T23:36:06.195Z,65.50
2023-02-19T23:38:32.882Z,58.25
2023-02-19T23:40:59.805Z,58.50
2023-02-19T23:43:26.544Z,61.00
2023-02-19T23:45:53.479Z,60.25
2023-02-19T23:48:20.350Z,60.00
2023-02-19T23:50:46.982Z,66.00
2023-02-19T23:53:13.626Z,60.50
2023-02-19T23:55:40.362Z,62.00
2023-02-19T23:58:06.998Z,64.25
